Duluth, MN (55811)

2:00 PM CDT on July 25, 2016 (GMT -0500)
Duluth International | | Change Station

Elev 1427 ft 46.84 °N, 92.19 °W | Updated 5 minutes ago

Scattered Clouds
Scattered Clouds
80 °F
Feels Like 81 °F
N
14
Wind Variable Wind from WNW
Gusts 21 mph

Today
High -- | Low -- °F
--% Chance of Precip.
Yesterday
High -- | Low -- °F
Precip. -- in
Pressure 30.01 in
Visibility 10.0 miles
Clouds Scattered Clouds 4500 ft
Heat Index 81 °F
Dew Point 60 °F
Humidity 50%
Rainfall 0.00 in
Snow Depth Not available.
5:40 AM 8:48 PM
Waning Gibbous, 63% visible
METAR KDLH 251855Z 30012G18KT 10SM SCT045 27/16 A3002 RMK AO2 SLP160 T02670156
Pressure 30.01 in
Visibility 10.0 miles
Clouds Scattered Clouds 4500 ft
Heat Index 81 °F
Dew Point 60 °F
Humidity 50%
Rainfall 0.00 in
Snow Depth Not available.
5:40 AM 8:48 PM
Waning Gibbous, 63% visible
METAR KDLH 251855Z 30012G18KT 10SM SCT045 27/16 A3002 RMK AO2 SLP160 T02670156

10-Day Weather Forecast

Almanac

Astronomy

Jul. 25, 2016 Rise Set
Actual Time
Civil Twilight
Nautical Twilight
Astronomical Twilight
Moon
Length of Visible Light
Length of Day
Tomorrow will be .
, % of the Moon is Illuminated

Today's Extremes

State Highs State Lows

Community

WunderPhotos

Upload Photos

1,927,370 photos uploaded!

WunderBlog® & News

Nearby

Air Quality

  Air Quality AQ Index Pollutant
Not available.

Snow Depth

Station Depth Elevation

Earthquake Activity

City Distance Mag. Time & Date
Minimum magnitude displayed is 2.5.

Coastal Water Temperatures

Place Temperature

Stations

Nearby Weather Stations

Station Location Temp. Windchill Dew Point Humidity Wind Precip. Elev Updated Type
                   

Watches & Warnings

There are currently no watches in effect.